Meteo Giornale » Osservazioni meteo Italia » Roma-Ciampino

ore: 00:50 - Osservazioni Meteo Roma-Ciampino
Lat. 41° 47' N Lon. 12° 35' E Alt. 129 metri s.l.m.

sereno Europe/Rome

13 °C

Sereno

Temp. 24 Ore

10 °C

22 °C

Est/Sud-Est

7.4 Km/h

Dew point 11 °C

Umidità 87 %

Visibilità  10 Km

Il sole sorge alle ore 06:56

Il sole tramonta alle ore 19:08

Data e Ora Cielo e Fenomeni T °C DP °C Um. % Pres. hPa Vis. km Vento km/h
Oggi h: 00:50 sereno Sereno 13 11 87 1021 10 E/SE 7.4
Oggi h: 00:20 sereno Sereno 14 11 82 1021 10 E/SE 9.3
Ieri h: 23:50 sereno Sereno 14 11 82 1021 10 E 7.4
Ieri h: 23:20 sereno Sereno 15 11 76 1020 10 E/SE 7.4
Ieri h: 22:50 sereno Sereno 15 11 76 1020 10 E 9.3
Ieri h: 22:20 sereno Sereno 15 11 76 1020 10 N 5.5
Ieri h: 21:50 sereno Sereno 15 11 76 1020 10 E 9.3
Ieri h: 21:20 sereno Sereno 15 11 76 1020 10 N 5.5
Ieri h: 20:50 sereno Sereno 16 11 72 1020 10 E/SE 7.4
Ieri h: 20:20 sereno Sereno 17 10 63 1020 10 N 3.7
Ieri h: 19:50 poco_nuvoloso Poco Nuvoloso 18 10 59 1020 10 N 1.8
Ieri h: 19:20 poco_nuvoloso Poco Nuvoloso 19 10 55 1019 10 N 3.7
Ieri h: 18:50 poco_nuvoloso Poco Nuvoloso 20 10 52 1019 10 O/SO 7.4
Ieri h: 18:20 poco_nuvoloso Poco Nuvoloso 20 9 49 1019 10 O 13
Ieri h: 17:50 poco_nuvoloso Poco Nuvoloso 21 8 43 1019 10 O/SO 13
Ieri h: 17:20 poco_nuvoloso Poco Nuvoloso 21 9 46 1019 10 O 14.8
Ieri h: 16:50 nuvoloso Nuvoloso 21 10 49 1019 10 O 14.8
Ieri h: 16:20 nuvoloso Nuvoloso 22 7 37 1019 10 O/SO 14.8
Ieri h: 15:50 molto_nuvoloso Molto Nuvoloso 21 8 43 1019 10 O 13
Ieri h: 15:20 molto_nuvoloso Molto Nuvoloso 21 7 40 1019 10 O 11.1
Ieri h: 14:50 nuvoloso Nuvoloso 22 8 40 1019 10 O 11.1
Ieri h: 14:20 nuvoloso Nuvoloso 22 8 40 1020 10 NO 11.1
Ieri h: 13:50 nuvoloso Nuvoloso 21 8 43 1020 10 N/NO 11.1
Ieri h: 13:20 poco_nuvoloso Poco Nuvoloso 21 6 37 1020 10 O/NO 9.3
Ieri h: 12:50 poco_nuvoloso Poco Nuvoloso 21 7 40 1020 10 O/NO 9.3
Ieri h: 12:20 poco_nuvoloso Poco Nuvoloso 21 7 40 1020 10 NO 11.1
Ieri h: 11:50 poco_nuvoloso Poco Nuvoloso 20 7 42 1020 10 N/NO 7.4
Ieri h: 11:20 sereno Sereno 20 6 39 1020 10 N 5.5
Ieri h: 10:50 sereno Sereno 19 7 45 1020 10 N 5.5
Ieri h: 10:20 sereno Sereno 18 7 48 1020 10 NO 7.4
Ieri h: 09:50 sereno Sereno 17 5 45 1020 10 N 5.5
Ieri h: 09:20 sereno Sereno 15 7 58 1019 10 N 5.5
Ieri h: 08:50 sereno Sereno 13 7 66 1019 10 N 5.5
Ieri h: 08:20 sereno Sereno 11 7 76 1019 10 N 5.5
Ieri h: 07:50 sereno Sereno 10 6 76 1019 10 N 7.4
Ieri h: 07:20 sereno Sereno 11 5 66 1019 10 N 5.5
Ieri h: 06:50 sereno Sereno 11 5 66 1019 10 N 1.8
Ieri h: 06:20 sereno Sereno 11 5 66 1019 10 N 1.8
Ieri h: 05:50 sereno Sereno 11 5 66 1019 10 N/NE 7.4
Ieri h: 05:20 sereno Sereno 11 5 66 1019 10 N/NE 9.3
Ieri h: 04:50 sereno Sereno 10 5 71 1019 10 N 5.5
Ieri h: 04:20 sereno Sereno 12 5 62 1019 10 NE 7.4
Ieri h: 03:50 sereno Sereno 12 5 62 1019 10 N 1.8
Ieri h: 03:20 sereno Sereno 13 5 58 1019 10 NE 9.3
Ieri h: 02:50 sereno Sereno 13 5 58 1019 10 N/NE 11.1
Ieri h: 02:20 sereno Sereno 13 5 58 1019 10 N/NE 11.1
Ieri h: 01:50 sereno Sereno 12 5 62 1019 10 N/NE 9.3